createdAt,value
2017-05-08T00:06:49.562Z,7.5
2017-05-08T00:17:00.464Z,7.5
2017-05-08T00:27:11.406Z,7.4
2017-05-08T00:37:22.400Z,7.4
2017-05-08T00:47:33.303Z,7.5
2017-05-08T00:57:44.108Z,7.5
2017-05-08T01:07:54.956Z,7.7
2017-05-08T01:18:05.801Z,7.7
2017-05-08T01:28:16.593Z,7.7
2017-05-08T01:38:27.418Z,7.7
2017-05-08T01:48:38.281Z,7.8
2017-05-08T01:58:49.143Z,7.9
2017-05-08T02:08:59.968Z,7.8
2017-05-08T02:19:10.712Z,7.9
2017-05-08T02:29:21.466Z,7.9
2017-05-08T02:39:32.264Z,8
2017-05-08T02:49:43.068Z,8.1
2017-05-08T02:59:53.799Z,8
2017-05-08T03:10:04.522Z,8.1
2017-05-08T03:20:15.241Z,8.1
2017-05-08T03:30:25.985Z,8.1
2017-05-08T03:40:36.750Z,8.1
2017-05-08T03:50:47.522Z,8
2017-05-08T04:00:58.359Z,8.1
2017-05-08T04:11:09.148Z,8.2
2017-05-08T04:21:19.938Z,8.2
2017-05-08T04:31:30.665Z,8.2
2017-05-08T04:41:41.428Z,7.9
2017-05-08T04:51:52.149Z,7.3
2017-05-08T05:02:02.937Z,6.9
2017-05-08T05:12:13.807Z,6.8
2017-05-08T05:22:24.671Z,6.8
2017-05-08T05:32:35.513Z,6.7
2017-05-08T05:42:46.371Z,6.5
2017-05-08T05:52:57.175Z,6.7
2017-05-08T06:03:08.054Z,6.8
2017-05-08T06:13:18.888Z,6.9
2017-05-08T06:23:29.686Z,7.1
2017-05-08T06:33:40.514Z,7.2
2017-05-08T06:43:51.336Z,7.3
2017-05-08T06:54:02.069Z,7.2
2017-05-08T07:04:12.756Z,7.3
2017-05-08T07:14:23.384Z,7.3
2017-05-08T07:24:33.934Z,7.5
2017-05-08T07:34:44.395Z,7.7
2017-05-08T07:44:54.766Z,7.7
2017-05-08T07:55:05.135Z,7.9
2017-05-08T08:05:15.419Z,7.9
2017-05-08T08:15:25.617Z,7.9
2017-05-08T08:25:35.790Z,8.1
2017-05-08T08:35:45.987Z,7.9
2017-05-08T08:45:56.172Z,8.1
2017-05-08T08:56:06.305Z,8.3
2017-05-08T09:06:16.455Z,8.4
2017-05-08T09:16:26.504Z,8.5
2017-05-08T09:26:36.655Z,8.2
2017-05-08T09:36:46.641Z,8.6
2017-05-08T09:46:56.664Z,8.9
2017-05-08T09:57:06.696Z,8.6
2017-05-08T10:07:16.687Z,8.8
2017-05-08T10:17:26.708Z,8.6
2017-05-08T10:27:36.624Z,8.4
2017-05-08T10:37:46.504Z,8.8
2017-05-08T10:47:56.169Z,8.8
2017-05-08T10:58:05.572Z,9.2
2017-05-08T11:08:15.009Z,9.6
2017-05-08T11:18:24.673Z,9.4
2017-05-08T11:28:34.542Z,9.3
2017-05-08T11:38:44.503Z,9.2
2017-05-08T11:48:54.536Z,9.1
2017-05-08T11:59:04.633Z,9.2
2017-05-08T12:09:14.685Z,9.2
2017-05-08T12:19:24.760Z,9.2
2017-05-08T12:29:34.849Z,8.8
2017-05-08T12:39:44.974Z,8.6
2017-05-08T12:49:55.203Z,8.7
2017-05-08T13:00:05.510Z,8.8
2017-05-08T13:10:15.823Z,8.9
2017-05-08T13:20:26.276Z,9.2
2017-05-08T13:30:36.354Z,9.4
2017-05-08T13:40:46.495Z,9.4
2017-05-08T13:50:56.608Z,9.5
2017-05-08T14:01:06.703Z,9.3
2017-05-08T14:11:16.850Z,9.7
2017-05-08T14:21:26.894Z,10.2
2017-05-08T14:31:36.732Z,10.4
2017-05-08T14:41:45.930Z,11.5
2017-05-08T14:51:54.808Z,10.7
2017-05-08T15:02:03.833Z,11.2
2017-05-08T15:12:12.804Z,11.5
2017-05-08T15:22:21.442Z,12
2017-05-08T15:32:30.446Z,12.4
2017-05-08T15:42:39.178Z,12.7
2017-05-08T15:52:47.931Z,12.3
2017-05-08T16:02:56.706Z,12.4
2017-05-08T16:13:05.542Z,12.3
2017-05-08T16:23:14.771Z,12.1
2017-05-08T16:33:24.074Z,12.3
2017-05-08T16:43:33.417Z,12.2
2017-05-08T16:53:42.818Z,12.6
2017-05-08T17:03:52.047Z,12.7
2017-05-08T17:14:01.023Z,12.5
2017-05-08T17:24:10.378Z,11.9
2017-05-08T17:34:19.982Z,11.9
2017-05-08T17:44:29.477Z,12
2017-05-08T17:54:38.845Z,12
2017-05-08T18:04:48.320Z,12
2017-05-08T18:14:57.713Z,11.6
2017-05-08T18:25:07.347Z,11.2
2017-05-08T18:35:17.280Z,10.9
2017-05-08T18:45:27.385Z,10.8
2017-05-08T18:55:37.596Z,10.8
2017-05-08T19:05:47.854Z,10.5
2017-05-08T19:15:58.215Z,10.1
2017-05-08T19:26:08.622Z,10
2017-05-08T19:36:19.124Z,9.7
2017-05-08T19:46:29.672Z,9.4
2017-05-08T19:56:40.321Z,9.4
2017-05-08T20:06:50.974Z,9.2
2017-05-08T20:17:01.648Z,9.1
2017-05-08T20:27:12.337Z,9
2017-05-08T20:37:23.115Z,8.8
2017-05-08T20:47:33.888Z,8.8
2017-05-08T20:57:44.635Z,8.7
2017-05-08T21:07:55.393Z,8.5
2017-05-08T21:18:06.184Z,8.5
2017-05-08T21:28:16.984Z,8.2
2017-05-08T21:38:27.833Z,8
2017-05-08T21:48:38.727Z,7.8
2017-05-08T21:58:49.684Z,7.6
2017-05-08T22:09:00.714Z,7.4
2017-05-08T22:19:11.777Z,7
2017-05-08T22:29:22.817Z,6.7
2017-05-08T22:39:33.922Z,6.5
2017-05-08T22:49:45.133Z,6.4
2017-05-08T22:59:56.314Z,6.2
2017-05-08T23:10:07.588Z,6
2017-05-08T23:20:18.840Z,6.1
2017-05-08T23:30:30.126Z,6
2017-05-08T23:40:41.378Z,5.7
2017-05-08T23:50:52.628Z,5.5
